Terminal Aerodrome Forecast
Issued by NWS Rapid City, SD

Home | Current Version | Previous Version | Graphics & Text | Print | Product List | Glossary On
Versions: 1 2 3 4 5 6 7 8 9 10 11 12 13 14 15 16 17 18
000
FTUS43 KUNR 192332
TAFRAP
TAF
KRAP 192332Z 2000/2024 34014KT P6SM -SHRA OVC060
     FM200200 31010KT P6SM BKN100
     FM201600 21014KT P6SM SCT200=

USA.gov is the U.S. government's official web portal to all federal, state and local government web resources and services.